Time;durP1;ratioP1;P1;durP2;ratioP2;P2;SDS_P1;SDS_P2;PMS_P1;PMS_P2;Temp;Humidity;BMP_temperature;BMP_pressure;BME280_temperature;BME280_humidity;BME280_pressure;Samples;Min_cycle;Max_cycle;Signal;HPM_P1;HPM_P2
2023/05/10 04:00:12;;;;;;;4.75;3.60;;;14.00;99.90;;;;;;6057014;23;20050;31
2023/05/10 04:02:37;;;;;;;6.90;3.70;;;14.00;99.90;;;;;;4966306;28;19926;-68
2023/05/10 04:05:03;;;;;;;4.17;3.07;;;14.00;99.90;;;;;;4969932;28;20089;-72
2023/05/10 04:07:29;;;;;;;5.30;3.33;;;14.10;99.90;;;;;;4991890;28;20023;-71
2023/05/10 04:09:54;;;;;;;3.30;3.00;;;14.00;99.90;;;;;;4977428;28;20472;-72
2023/05/10 04:12:20;;;;;;;4.07;3.30;;;14.00;99.90;;;;;;4977376;28;20438;-72
2023/05/10 04:14:45;;;;;;;2.90;2.60;;;13.90;99.90;;;;;;4977247;28;20062;-71
2023/05/10 04:17:11;;;;;;;3.53;2.80;;;14.00;99.90;;;;;;4973337;28;20027;-72
2023/05/10 04:19:36;;;;;;;5.10;2.83;;;14.10;99.90;;;;;;4973532;28;20077;-73
2023/05/10 04:22:02;;;;;;;4.00;2.75;;;14.20;99.90;;;;;;4976456;28;20046;-70
2023/05/10 04:24:28;;;;;;;4.55;2.60;;;14.10;99.90;;;;;;4957549;29;20073;-70
2023/05/10 04:26:54;;;;;;;3.47;2.50;;;14.10;99.90;;;;;;4960446;28;20030;-70
2023/05/10 04:29:20;;;;;;;3.90;2.17;;;14.20;99.90;;;;;;4976762;28;20102;-70
2023/05/10 04:31:46;;;;;;;3.35;3.05;;;14.30;99.90;;;;;;4975792;28;20101;-70
2023/05/10 04:34:12;;;;;;;4.93;2.53;;;14.20;99.90;;;;;;4965870;28;20403;-71
2023/05/10 04:36:37;;;;;;;3.03;2.70;;;14.30;99.90;;;;;;4975558;28;20571;-72
2023/05/10 04:39:03;;;;;;;5.37;3.10;;;14.30;99.90;;;;;;4973219;28;20073;-72
2023/05/10 04:41:29;;;;;;;4.72;4.20;;;14.30;99.90;;;;;;4971751;28;20038;-71
2023/05/10 04:43:55;;;;;;;3.17;2.58;;;14.30;99.90;;;;;;4957330;29;20480;-72
2023/05/10 04:46:21;;;;;;;6.22;3.95;;;14.40;99.90;;;;;;4961769;28;20030;-72
2023/05/10 04:48:46;;;;;;;11.03;6.00;;;14.40;99.90;;;;;;4960214;28;20474;-71
2023/05/10 04:51:12;;;;;;;6.50;4.97;;;14.40;99.90;;;;;;4957049;28;20499;-69
2023/05/10 04:53:37;;;;;;;5.60;2.57;;;14.50;99.90;;;;;;4965537;28;20067;-70
2023/05/10 04:56:03;;;;;;;4.50;2.53;;;14.50;99.90;;;;;;4971570;28;20027;-69
2023/05/10 04:58:29;;;;;;;3.13;2.50;;;14.50;99.90;;;;;;4956707;28;20031;-70
2023/05/10 05:00:54;;;;;;;5.15;3.50;;;14.50;99.90;;;;;;4979064;28;20073;-71
2023/05/10 05:03:20;;;;;;;8.43;3.37;;;14.70;99.90;;;;;;4962999;28;20027;-71
2023/05/10 05:05:46;;;;;;;5.03;3.20;;;14.70;99.90;;;;;;4956761;29;20023;-71
2023/05/10 05:08:11;;;;;;;4.40;2.80;;;14.60;99.90;;;;;;4968561;28;20357;-71
2023/05/10 05:10:37;;;;;;;7.45;3.65;;;14.60;99.90;;;;;;4980446;28;20023;-66
2023/05/10 05:13:02;;;;;;;6.23;3.10;;;14.60;99.90;;;;;;4981430;28;20467;-68
2023/05/10 05:15:28;;;;;;;5.03;3.10;;;14.60;99.90;;;;;;4976165;28;20089;-68
2023/05/10 05:17:53;;;;;;;5.67;3.33;;;14.60;99.90;;;;;;4975828;28;20130;-68
2023/05/10 05:20:19;;;;;;;3.87;3.07;;;14.60;99.90;;;;;;4974506;28;20336;-67
2023/05/10 05:22:45;;;;;;;3.88;3.03;;;14.70;99.90;;;;;;4975821;28;20448;-67
2023/05/10 05:25:11;;;;;;;3.08;2.78;;;14.80;99.90;;;;;;4968865;28;20027;-68
2023/05/10 05:27:37;;;;;;;5.53;3.30;;;14.80;99.90;;;;;;4956373;29;20024;-67
2023/05/10 05:30:04;;;;;;;12.77;4.53;;;14.80;99.90;;;;;;4956664;29;20043;-68
2023/05/10 05:32:30;;;;;;;3.78;3.00;;;14.80;99.90;;;;;;4955942;29;20031;-68
2023/05/10 05:34:55;;;;;;;4.93;2.88;;;14.90;99.90;;;;;;4955960;28;20424;-67
2023/05/10 05:37:22;;;;;;;3.93;2.50;;;14.90;99.90;;;;;;4963702;28;20035;-68
2023/05/10 05:39:47;;;;;;;;;;;15.00;99.90;;;;;;4975786;28;20825;-68
2023/05/10 05:42:14;;;;;;;6.13;2.67;;;15.00;99.90;;;;;;4976144;28;19970;-67
2023/05/10 05:44:40;;;;;;;5.13;2.58;;;15.10;99.90;;;;;;4977329;28;20046;-68
2023/05/10 05:47:06;;;;;;;3.78;2.47;;;15.20;99.90;;;;;;4965717;28;20091;-67
2023/05/10 05:49:32;;;;;;;4.40;2.50;;;15.20;99.90;;;;;;4957283;29;20033;-68
2023/05/10 05:52:02;;;;;;;4.15;2.22;;;15.10;99.90;;;;;;4958780;28;20102;-68
2023/05/10 05:54:27;;;;;;;4.47;2.30;;;15.10;99.90;;;;;;4958644;28;20058;-69
2023/05/10 05:57:00;;;;;;;5.05;3.08;;;15.10;99.90;;;;;;4963639;28;20026;-68
2023/05/10 05:59:26;;;;;;;4.13;2.20;;;15.00;99.90;;;;;;4975433;28;20039;-70
2023/05/10 06:01:52;;;;;;;6.35;3.30;;;15.00;99.90;;;;;;4974718;28;20038;-71
2023/05/10 06:04:18;;;;;;;3.50;1.83;;;15.10;99.90;;;;;;4975370;28;20037;-69
2023/05/10 06:06:43;;;;;;;2.85;1.90;;;15.10;99.90;;;;;;4975101;28;20106;-69
2023/05/10 06:09:09;;;;;;;6.00;2.08;;;15.10;99.90;;;;;;4958750;28;20031;-69
2023/05/10 06:11:35;;;;;;;8.43;4.93;;;15.30;99.90;;;;;;4955366;28;20031;-71
2023/05/10 06:14:01;;;;;;;3.42;2.17;;;15.40;99.90;;;;;;4955697;28;20038;-71
2023/05/10 06:16:27;;;;;;;2.50;1.48;;;15.30;99.90;;;;;;4954956;28;20032;-70
2023/05/10 06:18:53;;;;;;;1.60;1.50;;;15.30;99.90;;;;;;4954728;28;20182;-70
2023/05/10 06:21:19;;;;;;;5.65;1.77;;;15.30;99.90;;;;;;4954151;29;20027;-69
2023/05/10 06:23:45;;;;;;;3.67;1.70;;;15.30;99.90;;;;;;4955340;28;20043;-68
2023/05/10 06:26:10;;;;;;;2.85;2.05;;;15.50;99.90;;;;;;4972909;28;20030;-69
2023/05/10 06:28:38;;;;;;;2.13;1.60;;;15.50;99.90;;;;;;4974658;28;20038;-69
2023/05/10 06:31:04;;;;;;;2.55;1.60;;;15.40;99.90;;;;;;4974449;28;20035;-69
2023/05/10 06:33:30;;;;;;;4.07;1.65;;;15.40;99.90;;;;;;4961406;28;20102;-69
2023/05/10 06:35:55;;;;;;;6.32;2.00;;;15.40;99.90;;;;;;4973526;28;20035;-69
2023/05/10 06:38:21;;;;;;;3.60;1.88;;;15.50;99.90;;;;;;4974189;28;20049;-68
2023/05/10 06:40:47;;;;;;;3.20;1.80;;;15.60;99.90;;;;;;4975453;28;20031;-69
2023/05/10 06:43:12;;;;;;;3.30;1.70;;;15.70;99.90;;;;;;4971241;28;20023;-68
2023/05/10 06:45:38;;;;;;;3.93;1.63;;;15.80;99.90;;;;;;4970727;28;20027;-69
2023/05/10 06:48:03;;;;;;;2.50;2.00;;;15.70;99.90;;;;;;4970241;28;20135;-70
2023/05/10 06:50:29;;;;;;;5.57;1.55;;;15.80;99.90;;;;;;4973211;28;20027;-69
2023/05/10 06:52:55;;;;;;;4.30;1.33;;;15.90;99.90;;;;;;4974542;28;20034;-70
2023/05/10 06:55:21;;;;;;;4.10;1.50;;;15.90;99.90;;;;;;4973022;28;20031;-68
2023/05/10 06:57:47;;;;;;;4.07;1.35;;;16.10;99.90;;;;;;4974411;28;20038;-68
2023/05/10 07:00:13;;;;;;;4.00;2.20;;;16.20;99.90;;;;;;4973524;28;20026;-70
2023/05/10 07:02:39;;;;;;;;;;;16.30;99.90;;;;;;4955195;28;20499;-70
2023/05/10 07:05:05;;;;;;;2.20;1.52;;;16.30;99.90;;;;;;4955058;29;19907;-71
2023/05/10 07:07:31;;;;;;;3.20;1.42;;;16.40;99.90;;;;;;4955197;28;20039;-69
2023/05/10 07:09:57;;;;;;;4.50;1.67;;;16.50;99.90;;;;;;4955193;29;20031;-68
2023/05/10 07:12:23;;;;;;;;;;;16.40;99.90;;;;;;4954545;28;20039;-68
2023/05/10 07:14:48;;;;;;;2.78;1.60;;;16.30;99.90;;;;;;4953809;28;20265;-71
2023/05/10 07:17:14;;;;;;;1.63;1.30;;;16.30;99.90;;;;;;4958507;29;20031;-70
2023/05/10 07:19:39;;;;;;;3.65;1.20;;;16.30;99.90;;;;;;4954832;29;20275;-70
2023/05/10 07:22:05;;;;;;;2.25;1.10;;;16.20;99.90;;;;;;4954661;29;20123;-69
2023/05/10 07:24:32;;;;;;;1.98;1.00;;;16.20;99.90;;;;;;4955212;29;20023;-68
2023/05/10 07:26:57;;;;;;;2.67;1.00;;;16.30;99.90;;;;;;4965306;28;20039;-70
2023/05/10 07:29:23;;;;;;;1.20;0.90;;;16.30;99.90;;;;;;4970810;28;20026;-69
2023/05/10 07:31:48;;;;;;;2.30;1.10;;;16.20;99.90;;;;;;4962588;28;20394;-70
2023/05/10 07:34:14;;;;;;;0.87;0.80;;;16.20;99.90;;;;;;4977719;28;20502;-70
2023/05/10 07:36:39;;;;;;;5.27;0.93;;;16.20;99.90;;;;;;4960713;28;20273;-70
2023/05/10 07:39:05;;;;;;;2.23;0.80;;;16.30;99.90;;;;;;4957376;28;20034;-69
2023/05/10 07:41:30;;;;;;;1.50;0.80;;;16.40;99.90;;;;;;4958411;29;20023;-69
2023/05/10 07:43:56;;;;;;;1.03;0.77;;;16.50;99.90;;;;;;4973078;28;20117;-69
2023/05/10 07:46:21;;;;;;;5.67;1.40;;;16.60;99.90;;;;;;4977678;28;20281;-69
2023/05/10 07:48:47;;;;;;;1.93;0.90;;;16.60;99.90;;;;;;4977323;28;20037;-70
2023/05/10 07:51:12;;;;;;;2.57;0.77;;;16.70;99.90;;;;;;4977502;28;20257;-69
2023/05/10 07:53:38;;;;;;;3.13;0.98;;;16.70;99.90;;;;;;4960508;28;20067;-71
2023/05/10 07:56:29;;;;;;;2.25;0.70;;;16.70;99.90;;;;;;4957985;29;20035;-73
2023/05/10 07:59:01;;;;;;;2.70;1.10;;;16.80;99.90;;;;;;4956857;29;20027;-70
2023/05/10 08:01:31;;;;;;;9.30;1.42;;;16.90;99.90;;;;;;4972812;28;20057;-70
2023/05/10 08:03:56;;;;;;;2.72;0.93;;;16.90;99.90;;;;;;4960626;28;20507;-71
2023/05/10 08:06:22;;;;;;;2.77;0.93;;;17.10;99.90;;;;;;4972741;28;20031;-71
2023/05/10 08:08:52;;;;;;;1.85;0.82;;;17.00;99.90;;;;;;4957678;29;20039;-71
2023/05/10 08:11:17;;;;;;;4.07;1.00;;;17.00;99.90;;;;;;4966649;28;20061;-71
2023/05/10 08:13:44;;;;;;;2.90;0.80;;;17.20;99.90;;;;;;4977045;28;20039;-71
2023/05/10 08:16:10;;;;;;;5.18;1.00;;;17.50;99.90;;;;;;4960220;28;20067;-71
2023/05/10 08:18:36;;;;;;;29.65;3.20;;;17.70;99.90;;;;;;4957464;29;20035;-70
2023/05/10 08:21:01;;;;;;;37.13;2.33;;;18.10;99.90;;;;;;4972535;28;20035;-72
2023/05/10 08:23:27;;;;;;;9.13;1.38;;;19.00;99.90;;;;;;4957645;29;20106;-73
2023/05/10 08:25:52;;;;;;;5.35;0.90;;;19.90;99.90;;;;;;4966672;28;20113;-71
2023/05/10 08:28:18;;;;;;;9.15;1.00;;;21.50;99.90;;;;;;4975489;28;20065;-71
2023/05/10 08:30:43;;;;;;;6.80;1.00;;;21.90;99.90;;;;;;4976594;28;20034;-72
2023/05/10 08:33:09;;;;;;;1.80;1.00;;;21.80;99.90;;;;;;4965808;28;20046;-72
2023/05/10 08:35:34;;;;;;;2.72;0.77;;;21.60;99.90;;;;;;4960313;28;20023;-70
2023/05/10 08:38:00;;;;;;;4.45;0.98;;;21.30;99.90;;;;;;4976795;28;20085;-67
2023/05/10 08:40:26;;;;;;;2.92;0.60;;;20.90;99.90;;;;;;4976441;28;20109;-70
2023/05/10 08:43:15;;;;;;;2.65;1.00;;;20.40;99.90;;;;;;4990441;28;20622;-71
2023/05/10 08:45:42;;;;;;;2.17;0.63;;;19.80;99.90;;;;;;4976436;28;20046;-71
2023/05/10 08:48:09;;;;;;;3.10;0.70;;;19.40;99.90;;;;;;4973120;28;20114;-72
2023/05/10 08:50:40;;;;;;;57.53;4.28;;;19.10;99.90;;;;;;4957020;28;20389;-70
2023/05/10 08:53:13;;;;;;;1.73;0.70;;;18.70;99.90;;;;;;4957028;28;20536;-70
2023/05/10 08:55:40;;;;;;;17.08;1.88;;;18.40;99.90;;;;;;4967107;28;20042;-68
2023/05/10 08:58:09;;;;;;;2.17;0.75;;;18.40;99.90;;;;;;4989969;28;20510;-69
2023/05/10 09:00:36;;;;;;;99.28;7.57;;;19.80;99.90;;;;;;4990984;28;20034;-68
2023/05/10 09:03:04;;;;;;;6.75;0.98;;;20.50;99.90;;;;;;4990703;28;20563;-69
2023/05/10 09:05:29;;;;;;;4.40;0.70;;;20.20;99.90;;;;;;4975389;28;20026;-68
2023/05/10 09:07:55;;;;;;;1.70;0.60;;;19.60;99.90;;;;;;4975905;28;20023;-68
2023/05/10 09:10:21;;;;;;;5.38;0.80;;;19.20;99.90;;;;;;4975995;28;20081;-67
2023/05/10 09:12:48;;;;;;;;;;;18.70;99.90;;;;;;4976355;28;20054;-68
2023/05/10 09:15:15;;;;;;;3.78;0.93;;;18.30;99.90;;;;;;4966428;28;19945;-69
2023/05/10 09:17:43;;;;;;;2.25;0.75;;;18.00;99.90;;;;;;4976132;28;20027;-67
2023/05/10 09:20:09;;;;;;;1.92;0.60;;;17.90;99.90;;;;;;4959112;28;20031;-69
2023/05/10 09:22:35;;;;;;;2.08;0.73;;;18.00;99.90;;;;;;4958573;28;20027;-67
2023/05/10 09:25:09;;;;;;;3.38;0.93;;;17.80;99.90;;;;;;4956488;29;20027;-67
2023/05/10 09:27:35;;;;;;;3.67;0.60;;;17.70;99.90;;;;;;4956993;28;20098;-68
2023/05/10 09:30:02;;;;;;;0.90;0.60;;;17.70;99.90;;;;;;4956286;28;20090;-68
2023/05/10 09:32:38;;;;;;;3.30;0.47;;;18.40;99.90;;;;;;4956197;28;20042;-67
2023/05/10 09:35:15;;;;;;;3.70;1.17;;;19.20;99.90;;;;;;4956169;29;20031;-71
2023/05/10 09:37:43;;;;;;;1.40;0.60;;;19.20;99.90;;;;;;4956592;28;20038;-71
2023/05/10 09:40:15;;;;;;;1.88;0.57;;;19.00;99.90;;;;;;4958204;28;20171;-71
2023/05/10 09:43:08;;;;;;;2.80;0.60;;;18.70;99.90;;;;;;4960113;28;20158;-71
2023/05/10 09:45:35;;;;;;;3.63;0.93;;;18.40;99.90;;;;;;4956824;28;20051;-71
2023/05/10 09:48:02;;;;;;;2.95;0.80;;;18.20;99.90;;;;;;4974682;28;20073;-71
2023/05/10 09:50:28;;;;;;;2.53;0.50;;;18.00;99.90;;;;;;4975805;28;20031;-72
2023/05/10 09:52:55;;;;;;;;;;;17.80;99.90;;;;;;4975738;28;20035;-71
2023/05/10 09:55:22;;;;;;;1.95;0.90;;;17.70;99.90;;;;;;4987577;28;19917;-71
2023/05/10 09:57:57;;;;;;;3.05;0.82;;;17.60;99.90;;;;;;4974474;28;20033;-70
2023/05/10 10:00:23;;;;;;;3.45;0.80;;;17.70;99.90;;;;;;4974353;28;20066;-70
2023/05/10 10:02:56;;;;;;;1.70;0.70;;;18.30;99.90;;;;;;4974691;28;20034;-71
2023/05/10 10:05:31;;;;;;;1.10;0.60;;;19.10;99.90;;;;;;4989891;28;20023;-70
2023/05/10 10:07:58;;;;;;;8.95;5.43;;;19.80;99.90;;;;;;4974468;28;20034;-70
2023/05/10 10:10:27;;;;;;;2.42;1.20;;;19.80;99.90;;;;;;4974828;28;20452;-70
2023/05/10 10:12:54;;;;;;;3.90;0.80;;;20.10;99.90;;;;;;4975282;28;20138;-71
2023/05/10 10:15:21;;;;;;;3.28;0.70;;;19.80;99.90;;;;;;4990714;28;20029;-71
2023/05/10 10:17:49;;;;;;;3.58;0.90;;;19.60;99.90;;;;;;4974117;28;20032;-71
2023/05/10 10:20:14;;;;;;;5.68;0.98;;;19.40;99.90;;;;;;4973576;28;20039;-71
2023/05/10 10:22:40;;;;;;;2.33;1.10;;;19.20;99.90;;;;;;4975131;28;20085;-73
2023/05/10 10:25:08;;;;;;;3.13;1.15;;;19.30;99.90;;;;;;4965990;28;20047;-72
2023/05/10 10:27:59;;;;;;;3.22;1.17;;;19.20;99.90;;;;;;4956272;28;20027;-71
2023/05/10 10:30:37;;;;;;;5.00;1.20;;;19.20;99.90;;;;;;4956127;28;20024;-72
2023/05/10 10:33:24;;;;;;;2.97;1.10;;;19.30;99.90;;;;;;4965984;28;20563;-72
2023/05/10 10:35:50;;;;;;;4.13;1.13;;;19.40;99.90;;;;;;4975475;28;20035;-72
2023/05/10 10:38:17;;;;;;;4.22;1.08;;;20.00;99.90;;;;;;4960137;28;20035;-71
2023/05/10 10:40:42;;;;;;;4.53;1.10;;;20.70;99.90;;;;;;4955534;28;20032;-72
2023/05/10 10:43:24;;;;;;;4.60;1.30;;;21.20;99.90;;;;;;4971638;28;20038;-72
2023/05/10 10:46:14;;;;;;;2.28;1.23;;;21.60;99.60;;;;;;4958221;28;20027;-71
2023/05/10 10:48:41;;;;;;;6.55;2.10;;;21.60;99.50;;;;;;4958107;29;20028;-72
2023/05/10 10:51:07;;;;;;;4.85;1.63;;;21.20;99.80;;;;;;4956481;28;20366;-72
2023/05/10 10:53:32;;;;;;;5.88;1.65;;;20.60;99.90;;;;;;4970132;28;20074;-71
2023/05/10 10:56:13;;;;;;;6.72;1.88;;;20.30;99.90;;;;;;4955323;29;20039;-72
2023/05/10 10:58:39;;;;;;;8.32;1.67;;;20.00;99.90;;;;;;4966931;28;20023;-71
2023/05/10 11:01:15;;;;;;;;;;;19.90;99.90;;;;;;4989694;28;20038;-71
2023/05/10 11:03:54;;;;;;;3.35;1.80;;;19.90;99.90;;;;;;4959320;28;19910;-72
2023/05/10 11:06:33;;;;;;;2.85;1.20;;;20.20;99.90;;;;;;4970652;28;20019;-72
2023/05/10 11:08:59;;;;;;;4.50;2.00;;;20.10;99.90;;;;;;4978829;28;20357;-71
2023/05/10 11:11:25;;;;;;;6.97;2.17;;;20.20;99.90;;;;;;4978947;28;20441;-71
2023/05/10 11:13:51;;;;;;;4.85;1.60;;;20.50;99.90;;;;;;4978418;28;20054;-73
2023/05/10 11:16:23;;;;;;;5.10;1.30;;;20.60;99.00;;;;;;4977400;28;20400;-71
2023/05/10 11:19:03;;;;;;;3.55;1.20;;;20.80;99.20;;;;;;4978160;28;20511;-69
2023/05/10 11:21:30;;;;;;;5.45;0.90;;;20.70;98.60;;;;;;4993575;28;20035;-72
2023/05/10 11:23:58;;;;;;;4.43;1.10;;;20.60;99.00;;;;;;4978352;28;20018;-73
2023/05/10 11:26:25;;;;;;;6.65;1.10;;;20.70;98.30;;;;;;4978013;28;20019;-70
2023/05/10 11:28:55;;;;;;;6.28;1.10;;;20.70;98.30;;;;;;4960034;28;20480;-70
2023/05/10 11:31:21;;;;;;;4.78;1.40;;;20.40;98.50;;;;;;4973465;28;20031;-71
2023/05/10 11:33:52;;;;;;;2.65;1.10;;;20.20;99.10;;;;;;4958939;28;20027;-71
2023/05/10 11:36:20;;;;;;;2.85;1.10;;;20.00;99.10;;;;;;4973247;28;20031;-69
2023/05/10 11:38:46;;;;;;;1.95;0.73;;;19.60;99.20;;;;;;4966521;28;20028;-69
2023/05/10 11:41:12;;;;;;;3.40;1.20;;;19.50;99.70;;;;;;4958530;28;20117;-70
2023/05/10 11:43:41;;;;;;;;;;;19.30;99.30;;;;;;4958810;28;20027;-71
2023/05/10 11:46:09;;;;;;;4.85;1.00;;;19.30;99.90;;;;;;4973435;28;20028;-70
2023/05/10 11:48:35;;;;;;;1.45;0.70;;;19.20;99.60;;;;;;4958241;28;20074;-71
2023/05/10 11:51:01;;;;;;;3.08;0.90;;;19.10;99.30;;;;;;4958629;29;20027;-71
2023/05/10 11:53:28;;;;;;;2.75;0.82;;;18.90;99.20;;;;;;4974964;28;20028;-72
2023/05/10 11:55:53;;;;;;;4.00;0.90;;;18.80;99.20;;;;;;4968253;28;20019;-71
2023/05/10 11:58:21;;;;;;;3.10;0.65;;;18.70;99.30;;;;;;4984042;28;20127;-72
2023/05/10 12:00:47;;;;;;;2.90;0.70;;;18.70;99.00;;;;;;4976040;28;20031;-71
2023/05/10 12:03:13;;;;;;;2.20;0.60;;;18.60;98.40;;;;;;4963915;28;20037;-73
2023/05/10 12:05:41;;;;;;;1.38;0.50;;;18.70;98.40;;;;;;4973338;28;20563;-73
2023/05/10 12:08:20;;;;;;;3.28;0.85;;;18.90;97.70;;;;;;4958146;29;20062;-70
2023/05/10 12:10:46;;;;;;;2.05;0.85;;;19.10;97.70;;;;;;4983452;28;20077;-70
2023/05/10 12:13:13;;;;;;;3.17;0.80;;;19.30;97.40;;;;;;4977763;28;20027;-71
2023/05/10 12:15:39;;;;;;;5.82;0.70;;;19.30;97.20;;;;;;4992412;28;20031;-72
2023/05/10 12:18:05;;;;;;;5.25;0.88;;;19.30;97.00;;;;;;4975969;28;20038;-70
2023/05/10 12:20:31;;;;;;;4.65;0.95;;;19.30;97.00;;;;;;4977132;28;20527;-70
2023/05/10 12:23:02;;;;;;;1.70;0.80;;;19.30;97.00;;;;;;4975688;28;20066;-70
2023/05/10 12:25:34;;;;;;;4.32;0.93;;;19.30;96.70;;;;;;4977117;28;20023;-72
2023/05/10 12:28:03;;;;;;;4.43;0.80;;;19.30;97.00;;;;;;4991686;28;20019;-69
2023/05/10 12:30:30;;;;;;;2.83;0.80;;;19.20;96.90;;;;;;4970576;28;20030;-71
2023/05/10 12:33:03;;;;;;;1.73;0.77;;;19.20;97.10;;;;;;4957325;28;20505;-70
2023/05/10 12:35:32;;;;;;;7.50;1.08;;;19.20;96.80;;;;;;4957530;29;20027;-70
2023/05/10 12:37:58;;;;;;;2.75;0.75;;;19.50;96.00;;;;;;4989396;28;20027;-77
2023/05/10 12:40:24;;;;;;;1.30;0.90;;;19.60;96.00;;;;;;4992075;28;20034;-71
2023/05/10 12:42:50;;;;;;;2.08;0.73;;;19.70;95.60;;;;;;4975369;28;20031;-70
2023/05/10 12:45:17;;;;;;;4.53;0.75;;;19.90;95.50;;;;;;4976644;28;20363;-72
2023/05/10 12:47:43;;;;;;;4.00;0.82;;;20.10;95.40;;;;;;4976711;28;20035;-70
2023/05/10 12:50:09;;;;;;;2.67;0.90;;;20.30;95.40;;;;;;4975494;28;20118;-71
2023/05/10 12:52:35;;;;;;;3.45;1.95;;;20.20;94.60;;;;;;4991411;28;20050;-71
2023/05/10 12:55:01;;;;;;;8.15;1.08;;;20.20;95.10;;;;;;4975247;28;20515;-71
2023/05/10 12:57:27;;;;;;;;;;;20.10;94.50;;;;;;4991806;28;20105;-71
2023/05/10 12:59:53;;;;;;;3.97;1.02;;;20.10;94.30;;;;;;4976042;28;19917;-70
2023/05/10 13:02:19;;;;;;;2.03;0.75;;;20.20;94.40;;;;;;4965392;28;20031;-69
2023/05/10 13:04:46;;;;;;;2.13;0.70;;;20.20;93.60;;;;;;4973916;28;20030;-70
2023/05/10 13:07:11;;;;;;;2.47;0.90;;;20.00;92.90;;;;;;4973427;28;20464;-71
2023/05/10 13:09:37;;;;;;;2.28;0.70;;;20.00;93.10;;;;;;4963557;28;20035;-71
2023/05/10 13:12:03;;;;;;;1.70;0.85;;;20.00;93.20;;;;;;4956709;29;20638;-71
2023/05/10 13:14:29;;;;;;;1.15;0.85;;;20.20;93.30;;;;;;4975275;28;20109;-72
2023/05/10 13:16:55;;;;;;;;;;;20.30;93.40;;;;;;4965255;28;20066;-72
2023/05/10 13:19:20;;;;;;;6.47;0.70;;;20.40;93.20;;;;;;4965387;28;19941;-71
2023/05/10 13:21:46;;;;;;;1.40;0.70;;;20.50;92.80;;;;;;4958228;28;20035;-72
2023/05/10 13:24:15;;;;;;;5.85;0.93;;;20.40;92.50;;;;;;4963399;28;20526;-73
2023/05/10 13:26:41;;;;;;;3.63;1.13;;;20.60;92.40;;;;;;4955410;28;20027;-72
2023/05/10 13:29:07;;;;;;;1.67;0.80;;;20.50;92.40;;;;;;4974040;28;20029;-72
2023/05/10 13:31:33;;;;;;;1.63;0.50;;;20.40;92.40;;;;;;4957331;28;20118;-69
2023/05/10 13:33:58;;;;;;;1.15;0.73;;;20.40;92.40;;;;;;4956376;28;20046;-70
2023/05/10 13:36:24;;;;;;;3.58;0.75;;;20.50;92.70;;;;;;4956737;28;20027;-71
2023/05/10 13:38:49;;;;;;;2.10;0.90;;;20.40;92.20;;;;;;4972203;28;20141;-70
2023/05/10 13:41:15;;;;;;;1.80;0.68;;;20.40;92.00;;;;;;4967057;28;20031;-70
2023/05/10 13:43:40;;;;;;;1.83;0.75;;;20.40;92.00;;;;;;4974125;28;20170;-71
2023/05/10 13:46:06;;;;;;;1.98;0.75;;;20.30;92.40;;;;;;4961203;28;20114;-71
2023/05/10 13:48:32;;;;;;;1.67;0.90;;;20.30;93.20;;;;;;4955624;29;20563;-71
2023/05/10 13:50:57;;;;;;;1.17;0.52;;;20.00;92.90;;;;;;4954984;29;20027;-71
2023/05/10 13:53:23;;;;;;;4.43;0.68;;;19.90;92.90;;;;;;4961964;28;20028;-72
2023/05/10 13:55:48;;;;;;;1.40;0.70;;;19.90;93.00;;;;;;4970932;28;20117;-72
2023/05/10 13:58:14;;;;;;;2.47;1.02;;;19.90;93.40;;;;;;4972943;28;20435;-71
2023/05/10 14:00:40;;;;;;;1.80;0.75;;;19.80;93.30;;;;;;4976181;28;20031;-72
2023/05/10 14:03:06;;;;;;;3.17;0.70;;;19.60;93.10;;;;;;4974852;28;20126;-71
2023/05/10 14:05:32;;;;;;;2.83;0.90;;;19.40;93.50;;;;;;4973944;28;20031;-71
2023/05/10 14:07:58;;;;;;;3.03;0.75;;;19.30;94.10;;;;;;4975025;28;20030;-71
2023/05/10 14:10:23;;;;;;;4.00;0.63;;;19.30;93.70;;;;;;4973981;28;20033;-71
2023/05/10 14:12:50;;;;;;;2.58;0.70;;;19.20;93.80;;;;;;4974979;28;20077;-71
2023/05/10 14:15:15;;;;;;;1.75;0.60;;;19.20;93.70;;;;;;4974893;28;20030;-71
2023/05/10 14:17:41;;;;;;;1.35;0.70;;;19.10;93.60;;;;;;4973213;28;20505;-71
2023/05/10 14:20:07;;;;;;;1.45;0.60;;;19.00;93.90;;;;;;4974969;28;20090;-72
2023/05/10 14:22:33;;;;;;;2.35;1.20;;;18.90;94.20;;;;;;4973422;28;20077;-72
2023/05/10 14:24:58;;;;;;;2.40;0.80;;;19.00;94.50;;;;;;4972182;28;20114;-71
2023/05/10 14:27:24;;;;;;;2.17;0.57;;;19.00;94.70;;;;;;4955514;29;20073;-72
2023/05/10 14:29:49;;;;;;;2.08;1.00;;;19.10;94.50;;;;;;4970470;28;20123;-68
2023/05/10 14:32:15;;;;;;;1.30;0.60;;;19.20;94.70;;;;;;4973666;28;20396;-69
2023/05/10 14:34:40;;;;;;;1.83;0.63;;;19.30;94.50;;;;;;4974524;28;20473;-69
2023/05/10 14:37:06;;;;;;;2.90;0.70;;;19.60;94.40;;;;;;4974645;28;20034;-69
2023/05/10 14:39:32;;;;;;;3.00;0.65;;;19.90;93.90;;;;;;4974150;28;20035;-70
2023/05/10 14:41:58;;;;;;;1.35;0.60;;;20.20;93.20;;;;;;4974245;28;20102;-69
2023/05/10 14:44:24;;;;;;;0.65;0.50;;;20.10;93.00;;;;;;4961064;28;20516;-69
2023/05/10 14:46:49;;;;;;;4.05;0.63;;;20.10;93.50;;;;;;4959908;28;20089;-69
2023/05/10 14:49:15;;;;;;;2.05;0.65;;;20.20;93.10;;;;;;4974240;28;20476;-69
2023/05/10 14:51:41;;;;;;;0.90;0.60;;;20.30;93.40;;;;;;4974175;28;20035;-68
2023/05/10 14:54:06;;;;;;;1.67;1.17;;;20.30;93.30;;;;;;4974650;28;20035;-69
2023/05/10 14:56:32;;;;;;;2.63;0.82;;;20.40;93.60;;;;;;4974513;28;20045;-69
2023/05/10 14:58:57;;;;;;;1.85;0.65;;;20.30;93.90;;;;;;4974264;28;20031;-69
2023/05/10 15:01:23;;;;;;;2.97;0.70;;;20.30;94.20;;;;;;4973847;28;20039;-69
2023/05/10 15:03:48;;;;;;;1.02;0.47;;;20.20;93.30;;;;;;4972983;28;20027;-68
2023/05/10 15:06:15;;;;;;;5.13;0.88;;;20.00;93.40;;;;;;4972990;28;20471;-68
2023/05/10 15:08:41;;;;;;;1.80;0.60;;;19.70;94.10;;;;;;4963198;28;20091;-69
2023/05/10 15:11:07;;;;;;;1.92;0.90;;;19.60;94.40;;;;;;4955088;29;20384;-69
2023/05/10 15:13:32;;;;;;;1.23;0.60;;;19.80;94.70;;;;;;4969751;28;20439;-69
2023/05/10 15:15:58;;;;;;;1.75;0.75;;;19.80;94.00;;;;;;4969805;28;20024;-68
2023/05/10 15:18:23;;;;;;;5.18;1.15;;;19.80;94.60;;;;;;4955199;28;20035;-71
2023/05/10 15:20:49;;;;;;;2.55;0.80;;;19.70;94.50;;;;;;4954942;29;20368;-71
2023/05/10 15:23:14;;;;;;;4.88;0.98;;;19.60;94.80;;;;;;4955432;29;20400;-71
2023/05/10 15:25:40;;;;;;;1.77;0.68;;;19.50;94.80;;;;;;4970186;28;20027;-68
2023/05/10 15:28:05;;;;;;;2.25;0.60;;;19.40;95.30;;;;;;4955829;29;20035;-70
2023/05/10 15:30:31;;;;;;;3.28;0.68;;;19.40;95.10;;;;;;4956495;28;20027;-69
2023/05/10 15:32:57;;;;;;;5.95;0.90;;;19.50;95.60;;;;;;4965763;28;20027;-71
2023/05/10 15:35:22;;;;;;;3.67;0.93;;;19.50;95.50;;;;;;4979827;28;20027;-70
2023/05/10 15:37:49;;;;;;;2.30;0.80;;;19.60;95.20;;;;;;4962180;28;20373;-70
2023/05/10 15:40:14;;;;;;;12.38;2.03;;;19.60;95.30;;;;;;4954121;28;20050;-70
2023/05/10 15:42:40;;;;;;;6.93;0.70;;;19.60;95.20;;;;;;4970492;28;20375;-71
2023/05/10 15:45:06;;;;;;;10.13;2.35;;;19.60;95.30;;;;;;4969563;28;20152;-69
2023/05/10 15:47:32;;;;;;;2.40;1.10;;;19.60;95.30;;;;;;4962217;28;20440;-70
2023/05/10 15:49:58;;;;;;;2.72;0.73;;;19.60;94.30;;;;;;4965560;28;20027;-70
2023/05/10 15:52:24;;;;;;;1.77;0.38;;;19.40;94.00;;;;;;4957764;28;20157;-69
2023/05/10 15:54:49;;;;;;;2.65;0.60;;;19.40;93.80;;;;;;4965489;28;20047;-70
2023/05/10 15:57:15;;;;;;;1.55;0.85;;;19.30;93.90;;;;;;4977868;28;20038;-69
2023/05/10 15:59:41;;;;;;;1.05;0.70;;;19.10;94.10;;;;;;4968586;28;20035;-68
2023/05/10 16:02:09;;;;;;;1.25;0.50;;;19.10;94.10;;;;;;4968772;28;20030;-70
2023/05/10 16:04:35;;;;;;;1.92;0.47;;;19.10;94.70;;;;;;4959713;28;20417;-70
2023/05/10 16:07:01;;;;;;;2.38;0.35;;;19.00;94.50;;;;;;4962808;28;20369;-69
2023/05/10 16:09:26;;;;;;;1.20;0.60;;;19.00;94.50;;;;;;4970023;28;20031;-70
2023/05/10 16:11:52;;;;;;;2.10;1.02;;;19.00;94.70;;;;;;4977349;28;20038;-69
2023/05/10 16:14:20;;;;;;;1.70;0.80;;;18.90;94.60;;;;;;4965120;28;20035;-69
2023/05/10 16:16:46;;;;;;;2.00;1.00;;;18.90;95.20;;;;;;4962018;28;20027;-69
2023/05/10 16:19:11;;;;;;;1.20;0.50;;;18.80;95.00;;;;;;4959891;28;20031;-70
2023/05/10 16:21:37;;;;;;;1.48;0.35;;;18.70;94.70;;;;;;4957882;29;20086;-71
2023/05/10 16:24:04;;;;;;;0.35;0.30;;;18.70;94.70;;;;;;4957885;28;20031;-70
2023/05/10 16:26:29;;;;;;;1.58;0.60;;;18.70;95.20;;;;;;4957947;29;20058;-69
2023/05/10 16:28:55;;;;;;;4.75;1.05;;;18.70;95.90;;;;;;4958315;29;20027;-72
2023/05/10 16:31:20;;;;;;;2.15;0.88;;;18.70;95.90;;;;;;4959577;28;20031;-71
2023/05/10 16:33:46;;;;;;;2.25;0.50;;;18.70;96.10;;;;;;4974156;28;20035;-71
2023/05/10 16:36:12;;;;;;;7.80;1.48;;;18.70;96.20;;;;;;4977535;28;20046;-71
2023/05/10 16:38:37;;;;;;;0.90;0.52;;;18.60;97.40;;;;;;4976965;28;20399;-69
2023/05/10 16:41:03;;;;;;;1.80;0.93;;;18.40;98.80;;;;;;4974477;28;20039;-69
2023/05/10 16:43:29;;;;;;;2.67;0.88;;;18.20;99.70;;;;;;4972164;28;20023;-69
2023/05/10 16:45:55;;;;;;;2.00;0.50;;;18.10;99.90;;;;;;4957657;28;20095;-74